Time;durP1;ratioP1;P1;durP2;ratioP2;P2;SDS_P1;SDS_P2;PMS_P1;PMS_P2;Temp;Humidity;BMP_temperature;BMP_pressure;BME280_temperature;BME280_humidity;BME280_pressure;Samples;Min_cycle;Max_cycle;Signal;HPM_P1;HPM_P2
2022/03/05 00:02:08;;;;;;;18.63;7.68;;;2.70;99.90;;;;;;5049440;28;20049;-65
2022/03/05 00:04:39;;;;;;;24.23;8.55;;;2.70;99.90;;;;;;5033668;28;20048;-64
2022/03/05 00:07:09;;;;;;;15.93;7.63;;;2.70;99.90;;;;;;5029800;28;20065;-64
2022/03/05 00:09:37;;;;;;;20.40;8.50;;;2.70;99.90;;;;;;5042510;28;20052;-65
2022/03/05 00:12:11;;;;;;;22.70;7.70;;;2.80;99.90;;;;;;5024257;28;20045;-64
2022/03/05 00:14:41;;;;;;;17.08;7.80;;;2.80;99.90;;;;;;5056258;28;20060;-65
2022/03/05 00:17:12;;;;;;;13.23;8.07;;;2.80;99.90;;;;;;5037409;28;20052;-64
2022/03/05 00:19:41;;;;;;;21.95;8.63;;;2.80;99.90;;;;;;5042565;28;20053;-63
2022/03/05 00:22:10;;;;;;;19.63;9.07;;;2.80;99.90;;;;;;5012154;28;20065;-66
2022/03/05 00:24:38;;;;;;;26.85;8.73;;;2.80;99.90;;;;;;5056064;28;20045;-65
2022/03/05 00:27:07;;;;;;;28.45;9.25;;;2.90;99.90;;;;;;5026870;28;20041;-63
2022/03/05 00:29:36;;;;;;;19.27;8.88;;;2.90;99.90;;;;;;5053431;28;20396;-65
2022/03/05 00:32:04;;;;;;;35.30;10.98;;;2.90;99.90;;;;;;5013528;28;20045;-64
2022/03/05 00:34:35;;;;;;;24.00;10.27;;;3.00;99.90;;;;;;5056624;28;20034;-64
2022/03/05 00:37:05;;;;;;;18.92;10.73;;;3.00;99.90;;;;;;5014893;28;20041;-65
2022/03/05 00:39:33;;;;;;;20.83;10.63;;;3.10;99.90;;;;;;5016965;28;20053;-64
2022/03/05 00:42:02;;;;;;;17.23;9.60;;;3.10;99.90;;;;;;5031447;28;20056;-65
2022/03/05 00:44:29;;;;;;;19.17;10.48;;;3.10;99.90;;;;;;5033361;28;20085;-64
2022/03/05 00:47:01;;;;;;;21.60;11.18;;;3.20;99.90;;;;;;5038267;28;20516;-63
2022/03/05 00:49:29;;;;;;;19.42;10.35;;;3.20;99.90;;;;;;5038460;28;20067;-63
2022/03/05 00:51:57;;;;;;;29.75;11.85;;;3.20;99.90;;;;;;5012089;28;20488;-64
2022/03/05 00:54:26;;;;;;;23.52;10.90;;;3.20;99.90;;;;;;5022226;28;20072;-65
2022/03/05 00:56:54;;;;;;;34.58;13.80;;;3.30;99.90;;;;;;5027854;28;20037;-64
2022/03/05 00:59:22;;;;;;;22.67;11.07;;;3.30;99.90;;;;;;5037858;28;20050;-63
2022/03/05 01:01:50;;;;;;;22.20;13.15;;;3.30;99.90;;;;;;5029007;28;20068;-62
2022/03/05 01:04:18;;;;;;;25.02;11.88;;;3.40;99.90;;;;;;5048696;28;20196;-65
2022/03/05 01:06:46;;;;;;;22.08;12.27;;;3.40;99.90;;;;;;5043234;28;20127;-64
2022/03/05 01:09:14;;;;;;;23.30;12.10;;;3.40;99.90;;;;;;5020838;28;20053;-65
2022/03/05 01:11:42;;;;;;;22.80;13.05;;;3.50;99.90;;;;;;5028322;28;20052;-65
2022/03/05 01:14:10;;;;;;;19.52;11.98;;;3.50;99.90;;;;;;5034608;28;20040;-66
2022/03/05 01:16:38;;;;;;;22.25;12.07;;;3.50;99.90;;;;;;5030727;28;20484;-65
2022/03/05 01:19:06;;;;;;;22.50;12.27;;;3.50;99.90;;;;;;5045795;28;20044;-64
2022/03/05 01:21:34;;;;;;;19.48;11.32;;;3.60;99.90;;;;;;5041551;28;20057;-66
2022/03/05 01:24:02;;;;;;;23.35;12.30;;;3.60;99.90;;;;;;5039511;28;20047;-65
2022/03/05 01:26:30;;;;;;;22.77;11.05;;;3.60;99.90;;;;;;5052140;28;20405;-64
2022/03/05 01:28:58;;;;;;;24.58;11.75;;;3.60;99.90;;;;;;5041329;28;20056;-66
2022/03/05 01:31:25;;;;;;;31.10;12.00;;;3.60;99.90;;;;;;5039261;28;20048;-63
2022/03/05 01:33:53;;;;;;;22.00;12.35;;;3.60;99.90;;;;;;5039393;28;20045;-66
2022/03/05 01:36:21;;;;;;;21.98;10.25;;;3.60;99.90;;;;;;5013396;28;20056;-65
2022/03/05 01:38:48;;;;;;;18.10;10.18;;;3.60;99.90;;;;;;5040753;28;20387;-65
2022/03/05 01:41:16;;;;;;;19.98;9.45;;;3.60;99.90;;;;;;5043567;28;20052;-67
2022/03/05 01:43:51;;;;;;;17.20;10.23;;;3.60;99.90;;;;;;5031670;28;20070;-65
2022/03/05 01:46:34;;;;;;;19.08;10.20;;;3.40;99.90;;;;;;5025871;28;20045;-64
2022/03/05 01:49:08;;;;;;;21.10;9.68;;;3.40;99.90;;;;;;5041321;28;20060;-65
2022/03/05 01:51:36;;;;;;;16.95;8.55;;;3.40;99.90;;;;;;5045546;28;20051;-67
2022/03/05 01:54:08;;;;;;;16.27;8.00;;;3.30;99.90;;;;;;5030369;28;20048;-67
2022/03/05 01:56:37;;;;;;;14.48;9.05;;;3.20;99.90;;;;;;5027839;28;20138;-65
2022/03/05 01:59:16;;;;;;;13.82;7.70;;;3.10;99.90;;;;;;5049081;28;20052;-67
2022/03/05 02:01:44;;;;;;;12.15;7.10;;;3.00;99.90;;;;;;5043710;28;20045;-67
2022/03/05 02:04:13;;;;;;;15.63;7.72;;;2.90;99.90;;;;;;5043549;28;20049;-63
2022/03/05 02:06:41;;;;;;;20.92;8.65;;;2.90;99.90;;;;;;5025729;28;20053;-64
2022/03/05 02:09:09;;;;;;;12.77;7.78;;;2.80;99.90;;;;;;5032578;28;20056;-63
2022/03/05 02:11:37;;;;;;;18.92;8.27;;;2.70;99.90;;;;;;5026537;28;20048;-63
2022/03/05 02:14:06;;;;;;;15.27;9.00;;;2.60;99.90;;;;;;5027553;28;20045;-63
2022/03/05 02:16:37;;;;;;;16.42;9.00;;;2.60;99.90;;;;;;5025297;28;20052;-63
2022/03/05 02:19:06;;;;;;;14.43;9.23;;;2.50;99.90;;;;;;5032407;28;20045;-64
2022/03/05 02:21:36;;;;;;;17.00;9.10;;;2.40;99.90;;;;;;5040549;28;20050;-63
2022/03/05 02:24:11;;;;;;;15.20;8.23;;;2.40;99.90;;;;;;5046737;28;20048;-64
2022/03/05 02:26:43;;;;;;;18.17;9.73;;;2.30;99.90;;;;;;5049119;28;20523;-64
2022/03/05 02:29:12;;;;;;;15.18;8.90;;;2.30;99.90;;;;;;5038596;28;20048;-63
2022/03/05 02:31:43;;;;;;;18.67;9.43;;;2.20;99.90;;;;;;5040644;28;20060;-64
2022/03/05 02:34:14;;;;;;;21.20;10.25;;;2.10;99.90;;;;;;5036208;28;20049;-63
2022/03/05 02:36:43;;;;;;;21.35;10.07;;;2.00;99.90;;;;;;5051840;28;20414;-65
2022/03/05 02:39:11;;;;;;;19.45;9.38;;;2.00;99.90;;;;;;5057458;28;20053;-65
2022/03/05 02:41:39;;;;;;;20.80;9.90;;;2.00;99.90;;;;;;5054305;28;20037;-63
2022/03/05 02:44:10;;;;;;;21.17;9.93;;;1.90;99.90;;;;;;5032274;28;20044;-64
2022/03/05 02:46:41;;;;;;;22.60;11.05;;;1.90;99.90;;;;;;5045120;28;20029;-64
2022/03/05 02:49:11;;;;;;;19.75;10.68;;;1.80;99.90;;;;;;5057191;28;20428;-64
2022/03/05 02:51:38;;;;;;;20.40;11.23;;;1.80;99.90;;;;;;5036620;28;20048;-63
2022/03/05 02:54:14;;;;;;;23.52;11.32;;;1.80;99.90;;;;;;5050615;28;20045;-64
2022/03/05 02:56:41;;;;;;;20.50;11.13;;;1.70;99.90;;;;;;5051313;28;20049;-64
2022/03/05 02:59:09;;;;;;;20.90;10.95;;;1.70;99.90;;;;;;5056042;28;20060;-64
2022/03/05 03:01:37;;;;;;;20.58;11.38;;;1.60;99.90;;;;;;5053419;28;20111;-64
2022/03/05 03:04:05;;;;;;;21.05;11.10;;;1.60;99.90;;;;;;5052897;28;20048;-64
2022/03/05 03:06:36;;;;;;;22.33;11.60;;;1.60;99.90;;;;;;5045176;28;20055;-65
2022/03/05 03:09:04;;;;;;;28.23;11.70;;;1.50;99.90;;;;;;5051287;28;20044;-64
2022/03/05 03:11:32;;;;;;;19.83;11.65;;;1.50;99.90;;;;;;5062272;28;20524;-65
2022/03/05 03:14:00;;;;;;;20.65;12.07;;;1.50;99.90;;;;;;5041844;28;20041;-62
2022/03/05 03:16:30;;;;;;;28.75;12.50;;;1.50;99.90;;;;;;5054555;28;20052;-66
2022/03/05 03:18:57;;;;;;;23.98;13.00;;;1.50;99.90;;;;;;5049716;28;20046;-64
2022/03/05 03:21:25;;;;;;;25.60;13.10;;;1.50;99.90;;;;;;5041334;28;20033;-65
2022/03/05 03:23:53;;;;;;;26.08;14.55;;;1.60;99.90;;;;;;5050051;28;20052;-65
2022/03/05 03:26:21;;;;;;;23.27;13.52;;;1.60;99.90;;;;;;5045927;28;20034;-64
2022/03/05 03:28:49;;;;;;;24.80;13.05;;;1.70;99.90;;;;;;5053773;28;20543;-64
2022/03/05 03:31:17;;;;;;;22.58;12.00;;;1.70;99.90;;;;;;5054718;28;20044;-65
2022/03/05 03:33:45;;;;;;;25.30;12.77;;;1.70;99.90;;;;;;5045676;28;20511;-63
2022/03/05 03:36:18;;;;;;;23.30;12.20;;;1.70;99.90;;;;;;5044498;28;20052;-64
2022/03/05 03:38:46;;;;;;;26.13;13.85;;;1.70;99.90;;;;;;5053348;28;20052;-64
2022/03/05 03:41:14;;;;;;;24.88;13.52;;;1.70;99.90;;;;;;5035264;28;20052;-63
2022/03/05 03:43:45;;;;;;;25.42;12.88;;;1.70;99.90;;;;;;5022877;28;20037;-61
2022/03/05 03:46:16;;;;;;;29.08;14.75;;;1.80;99.90;;;;;;5041924;28;20050;-63
2022/03/05 03:48:45;;;;;;;25.15;12.48;;;1.80;99.90;;;;;;5062725;28;20049;-64
2022/03/05 03:51:13;;;;;;;21.80;13.85;;;1.80;99.90;;;;;;5039142;28;20050;-63
2022/03/05 03:53:41;;;;;;;23.92;13.43;;;1.70;99.90;;;;;;5018754;28;20729;-65
2022/03/05 03:56:09;;;;;;;21.65;12.20;;;1.70;99.90;;;;;;5033717;28;20049;-66
2022/03/05 03:58:37;;;;;;;20.48;11.70;;;1.70;99.90;;;;;;5033361;28;20046;-65
2022/03/05 04:01:15;;;;;;;24.02;12.05;;;1.70;99.90;;;;;;5042283;28;20497;-64
2022/03/05 04:03:43;;;;;;;20.40;11.88;;;1.60;99.90;;;;;;5034709;28;20057;-65
2022/03/05 04:06:11;;;;;;;25.63;12.45;;;1.60;99.90;;;;;;5035495;28;20049;-65
2022/03/05 04:08:42;;;;;;;24.20;12.20;;;1.60;99.90;;;;;;5038861;28;20052;-66
2022/03/05 04:11:18;;;;;;;24.05;11.70;;;1.60;99.90;;;;;;5040766;28;20048;-66
2022/03/05 04:13:47;;;;;;;28.60;11.23;;;1.50;99.90;;;;;;5024084;28;20505;-62
2022/03/05 04:16:17;;;;;;;23.08;11.32;;;1.50;99.90;;;;;;5017683;28;20041;-63
2022/03/05 04:18:45;;;;;;;27.45;10.73;;;1.50;99.90;;;;;;5037255;28;20052;-66
2022/03/05 04:21:14;;;;;;;21.15;10.75;;;1.50;99.90;;;;;;5048588;28;20049;-66
2022/03/05 04:23:44;;;;;;;20.55;9.65;;;1.40;99.90;;;;;;5039768;28;20473;-66
2022/03/05 04:26:11;;;;;;;26.40;11.32;;;1.40;99.90;;;;;;5052984;28;20049;-66
2022/03/05 04:28:40;;;;;;;20.45;9.63;;;1.40;99.90;;;;;;5049402;28;20500;-66
2022/03/05 04:31:08;;;;;;;17.88;10.30;;;1.40;99.90;;;;;;5054033;28;20060;-64
2022/03/05 04:33:36;;;;;;;25.30;10.98;;;1.40;99.90;;;;;;5045534;28;20053;-66
2022/03/05 04:36:04;;;;;;;22.38;11.48;;;1.30;99.90;;;;;;5049558;28;20080;-65
2022/03/05 04:38:33;;;;;;;22.90;10.82;;;1.30;99.90;;;;;;5044146;28;20044;-65
2022/03/05 04:41:01;;;;;;;24.45;9.82;;;1.30;99.90;;;;;;5046455;28;20064;-62
2022/03/05 04:43:29;;;;;;;21.27;9.63;;;1.30;99.90;;;;;;5046993;28;20557;-63
2022/03/05 04:45:57;;;;;;;21.83;9.95;;;1.30;99.90;;;;;;5052593;28;20048;-63
2022/03/05 04:48:40;;;;;;;18.83;8.30;;;1.30;99.90;;;;;;5050428;28;20042;-62
2022/03/05 04:51:08;;;;;;;22.88;8.45;;;1.30;99.90;;;;;;5026575;28;20067;-62
2022/03/05 04:53:38;;;;;;;21.92;8.48;;;1.30;99.90;;;;;;5060632;28;20049;-63
2022/03/05 04:56:12;;;;;;;17.70;8.20;;;1.30;99.90;;;;;;5033377;28;20129;-63
2022/03/05 04:58:40;;;;;;;15.93;8.02;;;1.40;99.90;;;;;;5016186;28;20049;-66
2022/03/05 05:01:08;;;;;;;17.67;7.18;;;1.40;99.90;;;;;;5038902;28;20050;-62
2022/03/05 05:03:36;;;;;;;15.15;8.15;;;1.40;99.90;;;;;;5032956;28;20048;-63
2022/03/05 05:06:05;;;;;;;19.40;7.63;;;1.40;99.90;;;;;;5032184;28;20436;-62
2022/03/05 05:08:33;;;;;;;17.35;8.35;;;1.40;99.90;;;;;;5033857;28;20071;-62
2022/03/05 05:11:05;;;;;;;15.13;7.82;;;1.30;99.90;;;;;;5037960;28;20049;-63
2022/03/05 05:13:33;;;;;;;17.00;7.50;;;1.30;99.90;;;;;;5041606;28;20633;-66
2022/03/05 05:16:00;;;;;;;22.00;7.40;;;1.20;99.90;;;;;;5035861;28;20420;-64
2022/03/05 05:18:29;;;;;;;15.32;7.63;;;1.20;99.90;;;;;;5031918;28;20619;-64
2022/03/05 05:20:56;;;;;;;22.38;7.68;;;1.10;99.90;;;;;;5033252;28;20064;-64
2022/03/05 05:23:24;;;;;;;12.25;6.72;;;1.10;99.90;;;;;;5029038;28;20053;-63
2022/03/05 05:25:55;;;;;;;20.42;7.70;;;1.10;99.90;;;;;;5047589;28;20056;-64
2022/03/05 05:28:23;;;;;;;14.07;6.95;;;1.00;99.90;;;;;;5036377;28;20394;-65
2022/03/05 05:30:51;;;;;;;15.20;6.68;;;1.00;99.90;;;;;;5037827;28;20048;-64
2022/03/05 05:33:20;;;;;;;18.98;7.05;;;1.00;99.90;;;;;;5034186;28;20068;-64
2022/03/05 05:35:48;;;;;;;12.93;6.30;;;0.90;99.90;;;;;;5030281;28;20061;-66
2022/03/05 05:38:16;;;;;;;14.10;7.13;;;0.90;99.90;;;;;;5049736;28;20476;-61
2022/03/05 05:40:44;;;;;;;18.58;7.30;;;0.90;99.90;;;;;;5048371;28;20053;-64
2022/03/05 05:43:11;;;;;;;12.95;6.35;;;0.80;99.90;;;;;;5042988;28;20060;-65
2022/03/05 05:45:39;;;;;;;14.40;6.30;;;0.80;99.90;;;;;;5051726;28;20106;-65
2022/03/05 05:48:07;;;;;;;14.27;6.63;;;0.70;99.90;;;;;;5035686;28;20124;-67
2022/03/05 05:50:35;;;;;;;19.77;7.60;;;0.70;99.90;;;;;;5044517;28;20373;-64
2022/03/05 05:53:02;;;;;;;14.93;7.28;;;0.70;99.90;;;;;;5045077;28;20060;-65
2022/03/05 05:55:30;;;;;;;14.93;6.45;;;0.60;99.90;;;;;;5012874;28;20057;-62
2022/03/05 05:57:58;;;;;;;14.85;6.40;;;0.60;99.90;;;;;;5021648;28;20079;-63
2022/03/05 06:00:26;;;;;;;13.68;6.00;;;0.60;99.90;;;;;;5030885;28;20438;-67
2022/03/05 06:02:56;;;;;;;13.15;6.70;;;0.50;99.90;;;;;;5030800;28;20048;-66
2022/03/05 06:05:24;;;;;;;10.65;6.43;;;0.50;99.90;;;;;;5064712;28;20048;-66
2022/03/05 06:07:55;;;;;;;16.92;6.78;;;0.50;99.90;;;;;;5043394;28;20488;-62
2022/03/05 06:10:24;;;;;;;14.18;6.25;;;0.50;99.90;;;;;;5011040;28;20046;-65
2022/03/05 06:12:52;;;;;;;11.68;5.15;;;0.50;99.90;;;;;;5044152;28;20036;-65
2022/03/05 06:15:23;;;;;;;15.30;6.32;;;0.50;99.90;;;;;;5032512;28;20052;-66
2022/03/05 06:17:52;;;;;;;15.45;6.28;;;0.50;99.90;;;;;;5046522;28;20037;-65
2022/03/05 06:20:20;;;;;;;15.02;6.00;;;0.50;99.90;;;;;;5042164;28;20048;-65
2022/03/05 06:22:48;;;;;;;10.73;5.88;;;0.50;99.90;;;;;;5042349;28;20048;-65
2022/03/05 06:25:17;;;;;;;17.45;6.20;;;0.40;99.90;;;;;;5025154;28;20056;-62
2022/03/05 06:27:45;;;;;;;17.58;5.85;;;0.40;99.90;;;;;;5042035;28;20048;-65
2022/03/05 06:30:14;;;;;;;11.93;6.13;;;0.40;99.90;;;;;;5048163;28;20492;-63
2022/03/05 06:32:41;;;;;;;16.33;6.57;;;0.40;99.90;;;;;;5033844;28;20525;-64
2022/03/05 06:35:10;;;;;;;13.63;5.90;;;0.40;99.90;;;;;;5043458;28;20511;-63
2022/03/05 06:37:38;;;;;;;14.13;6.50;;;0.40;99.90;;;;;;5039736;28;20052;-64
2022/03/05 06:40:10;;;;;;;13.43;6.28;;;0.30;99.90;;;;;;5034501;28;20049;-66
2022/03/05 06:42:39;;;;;;;21.77;7.88;;;0.30;99.90;;;;;;5043831;28;20052;-65
2022/03/05 06:45:08;;;;;;;;;;;0.40;99.90;;;;;;5039025;28;20032;-64
2022/03/05 06:47:36;;;;;;;16.27;6.88;;;0.40;99.90;;;;;;5038294;28;19925;-66
2022/03/05 06:50:08;;;;;;;17.10;8.35;;;0.40;99.90;;;;;;5026620;28;20045;-67
2022/03/05 06:52:36;;;;;;;24.70;7.18;;;0.50;99.90;;;;;;5033414;28;20064;-65
2022/03/05 06:55:06;;;;;;;18.13;7.22;;;0.50;99.90;;;;;;5024875;28;20042;-67
2022/03/05 06:57:34;;;;;;;20.42;8.70;;;0.50;99.90;;;;;;5014384;28;20576;-66
2022/03/05 07:00:03;;;;;;;21.08;8.25;;;0.50;99.90;;;;;;5037179;28;20041;-66
2022/03/05 07:02:31;;;;;;;18.83;7.97;;;0.50;99.90;;;;;;5037801;28;20054;-65
2022/03/05 07:04:59;;;;;;;20.08;8.77;;;0.50;99.90;;;;;;5028381;28;20049;-65
2022/03/05 07:07:32;;;;;;;20.00;8.70;;;0.60;99.90;;;;;;5042539;28;20068;-63
2022/03/05 07:10:00;;;;;;;22.42;8.55;;;0.60;99.90;;;;;;5053090;28;20404;-65
2022/03/05 07:12:27;;;;;;;18.42;8.05;;;0.60;99.90;;;;;;5040403;28;20034;-65
2022/03/05 07:14:59;;;;;;;20.63;8.05;;;0.60;99.90;;;;;;5054863;28;20064;-65
2022/03/05 07:17:27;;;;;;;19.63;9.10;;;0.70;99.90;;;;;;5063120;28;20048;-68
2022/03/05 07:19:55;;;;;;;21.63;9.00;;;0.70;99.90;;;;;;5042469;28;20049;-66
2022/03/05 07:22:24;;;;;;;23.02;9.40;;;0.70;99.90;;;;;;5052039;28;20044;-65
2022/03/05 07:24:51;;;;;;;24.00;8.55;;;0.80;99.90;;;;;;5035784;28;20049;-63
2022/03/05 07:27:19;;;;;;;20.92;9.15;;;0.80;99.90;;;;;;5016283;28;20057;-64
2022/03/05 07:29:47;;;;;;;20.35;8.50;;;0.80;99.90;;;;;;5047686;28;20042;-64
2022/03/05 07:32:15;;;;;;;21.02;9.73;;;0.90;99.90;;;;;;5047740;28;20060;-63
2022/03/05 07:34:43;;;;;;;19.13;9.65;;;0.90;99.90;;;;;;5053541;28;20032;-64
2022/03/05 07:37:10;;;;;;;14.38;7.75;;;1.00;99.90;;;;;;5050268;28;20056;-64
2022/03/05 07:39:38;;;;;;;19.05;8.75;;;1.00;99.90;;;;;;5051145;28;20045;-64
2022/03/05 07:42:07;;;;;;;16.70;8.48;;;1.00;99.90;;;;;;5021709;28;20638;-64
2022/03/05 07:44:36;;;;;;;18.15;9.25;;;1.10;99.90;;;;;;5021419;28;20515;-63
2022/03/05 07:47:04;;;;;;;23.10;9.63;;;1.10;99.90;;;;;;5031358;28;20049;-64
2022/03/05 07:49:33;;;;;;;27.95;9.63;;;1.20;99.90;;;;;;5020882;28;20037;-64
2022/03/05 07:52:01;;;;;;;17.50;8.02;;;1.20;99.90;;;;;;5043223;28;20782;-62
2022/03/05 07:54:30;;;;;;;19.02;7.47;;;1.30;99.90;;;;;;5024048;28;20050;-66
2022/03/05 07:57:00;;;;;;;15.80;8.45;;;1.40;99.90;;;;;;5027240;28;20044;-64
2022/03/05 07:59:28;;;;;;;24.30;8.75;;;1.40;99.90;;;;;;5044044;28;20048;-65
2022/03/05 08:01:56;;;;;;;17.17;8.70;;;1.40;99.90;;;;;;5029534;28;20037;-63
2022/03/05 08:04:25;;;;;;;19.20;8.60;;;1.50;99.90;;;;;;5044954;28;20048;-63
2022/03/05 08:07:15;;;;;;;15.55;8.48;;;1.60;99.90;;;;;;5028176;28;20535;-63
2022/03/05 08:09:46;;;;;;;15.77;8.60;;;1.60;99.90;;;;;;5041380;28;20044;-64
2022/03/05 08:12:17;;;;;;;15.38;7.57;;;1.70;99.90;;;;;;5038394;28;20048;-63
2022/03/05 08:14:51;;;;;;;16.40;7.03;;;1.80;99.90;;;;;;5042559;28;20037;-63
2022/03/05 08:17:19;;;;;;;16.90;5.90;;;1.80;99.90;;;;;;5032914;28;20049;-63
2022/03/05 08:19:47;;;;;;;17.15;6.45;;;1.90;99.90;;;;;;5041977;28;20044;-63
2022/03/05 08:22:21;;;;;;;14.38;6.82;;;1.90;99.90;;;;;;5037734;28;20450;-63
2022/03/05 08:24:50;;;;;;;15.05;7.07;;;2.00;99.90;;;;;;5046514;28;20399;-63
2022/03/05 08:27:18;;;;;;;16.63;6.80;;;2.00;99.90;;;;;;5009707;28;20053;-65
2022/03/05 08:29:47;;;;;;;14.57;6.70;;;2.10;99.90;;;;;;5040089;28;20064;-64
2022/03/05 08:32:16;;;;;;;13.27;6.47;;;2.10;99.90;;;;;;5043548;28;20044;-63
2022/03/05 08:34:50;;;;;;;13.77;6.65;;;2.20;99.90;;;;;;5044996;28;20048;-62
2022/03/05 08:37:27;;;;;;;12.30;6.03;;;2.20;99.90;;;;;;5032305;28;20054;-64
2022/03/05 08:39:59;;;;;;;14.23;6.03;;;2.30;99.90;;;;;;5042195;28;20421;-65
2022/03/05 08:42:28;;;;;;;;;;;2.30;99.90;;;;;;5044042;28;20043;-65
2022/03/05 08:44:59;;;;;;;11.77;6.30;;;2.40;99.90;;;;;;5014447;28;20284;-65
2022/03/05 08:47:27;;;;;;;13.43;5.85;;;2.40;99.90;;;;;;5029339;28;20049;-64
2022/03/05 08:49:55;;;;;;;13.65;5.13;;;2.50;99.90;;;;;;5043637;28;20077;-64
2022/03/05 08:52:24;;;;;;;15.57;5.75;;;2.50;99.90;;;;;;5050562;28;20055;-64
2022/03/05 08:54:59;;;;;;;12.35;5.15;;;2.60;99.90;;;;;;5026191;28;20045;-64
2022/03/05 08:57:26;;;;;;;10.48;4.57;;;2.70;99.90;;;;;;5042700;28;20524;-64
2022/03/05 08:59:54;;;;;;;8.25;5.18;;;2.80;99.90;;;;;;5036199;28;20053;-63
2022/03/05 09:02:23;;;;;;;7.60;3.80;;;2.80;99.90;;;;;;5016704;28;20045;-63
2022/03/05 09:04:53;;;;;;;6.60;3.58;;;2.90;99.90;;;;;;5038546;28;20053;-63
2022/03/05 09:07:20;;;;;;;9.30;3.63;;;3.00;99.90;;;;;;5035241;28;20045;-65
2022/03/05 09:09:48;;;;;;;8.23;3.63;;;3.00;99.90;;;;;;5031830;28;20075;-65
2022/03/05 09:12:19;;;;;;;7.80;4.00;;;3.10;99.90;;;;;;5038873;28;20071;-63
2022/03/05 09:14:48;;;;;;;9.02;4.03;;;3.20;99.90;;;;;;5048411;28;20040;-63
2022/03/05 09:17:16;;;;;;;8.45;2.97;;;3.30;99.90;;;;;;5044043;28;20615;-65
2022/03/05 09:19:44;;;;;;;8.75;3.25;;;3.40;99.90;;;;;;5046443;28;20041;-64
2022/03/05 09:22:13;;;;;;;5.03;2.45;;;3.50;99.90;;;;;;5025899;28;20045;-65
2022/03/05 09:24:41;;;;;;;6.25;2.30;;;3.60;99.90;;;;;;5049071;28;20049;-65
2022/03/05 09:27:09;;;;;;;7.15;1.95;;;3.70;99.90;;;;;;5022928;28;20049;-64
2022/03/05 09:29:37;;;;;;;12.00;2.25;;;3.70;99.90;;;;;;5047307;28;20408;-67
2022/03/05 09:32:05;;;;;;;4.07;1.92;;;3.90;99.90;;;;;;5043759;28;20080;-65
2022/03/05 09:34:33;;;;;;;2.20;1.25;;;3.90;99.90;;;;;;5015765;28;20056;-63
2022/03/05 09:37:02;;;;;;;4.18;1.88;;;4.00;99.90;;;;;;5024964;28;20042;-66
2022/03/05 09:39:31;;;;;;;3.42;1.20;;;4.10;99.90;;;;;;5049934;28;20048;-65
2022/03/05 09:41:58;;;;;;;4.60;1.77;;;4.20;99.90;;;;;;5050068;28;20037;-66
2022/03/05 09:44:29;;;;;;;5.95;1.38;;;4.30;99.90;;;;;;5047670;28;20064;-65
2022/03/05 09:46:57;;;;;;;3.08;1.60;;;4.50;99.90;;;;;;5045118;28;20500;-66
2022/03/05 09:49:27;;;;;;;3.95;1.60;;;4.50;99.90;;;;;;5047209;28;20046;-65
2022/03/05 09:51:58;;;;;;;3.85;1.30;;;4.60;99.90;;;;;;5048475;28;20049;-66
2022/03/05 09:54:28;;;;;;;3.80;1.42;;;4.80;99.90;;;;;;5058046;28;20045;-63
2022/03/05 09:56:55;;;;;;;;;;;4.80;99.90;;;;;;5059120;28;20056;-65
2022/03/05 09:59:23;;;;;;;4.35;1.17;;;5.00;99.90;;;;;;5066577;28;19920;-67
2022/03/05 10:01:52;;;;;;;8.57;1.25;;;5.10;99.90;;;;;;5027519;28;20055;-65
2022/03/05 10:04:22;;;;;;;5.15;1.40;;;5.20;99.90;;;;;;5037578;28;20048;-65
2022/03/05 10:07:22;;;;;;;4.38;1.10;;;5.40;99.90;;;;;;5041195;28;20045;-63
2022/03/05 10:10:07;;;;;;;2.95;0.70;;;5.50;99.90;;;;;;4983016;28;20066;-63
2022/03/05 10:12:35;;;;;;;3.22;1.55;;;5.70;99.90;;;;;;5040752;28;20041;-64
2022/03/05 10:15:10;;;;;;;8.07;1.15;;;5.80;99.90;;;;;;5036225;28;20052;-63
2022/03/05 10:17:47;;;;;;;4.18;0.80;;;5.80;99.90;;;;;;5042261;28;20207;-63
2022/03/05 10:20:15;;;;;;;4.13;1.20;;;5.80;99.90;;;;;;5042116;28;20049;-65
2022/03/05 10:23:11;;;;;;;4.45;1.00;;;5.90;99.90;;;;;;5044984;28;20048;-62
2022/03/05 10:25:40;;;;;;;3.75;0.88;;;5.90;99.90;;;;;;5023143;28;20059;-64
2022/03/05 10:28:24;;;;;;;3.95;0.98;;;6.00;99.90;;;;;;5046940;28;20064;-63
2022/03/05 10:30:53;;;;;;;4.25;0.73;;;6.10;99.90;;;;;;5025595;28;20049;-64
2022/03/05 10:33:28;;;;;;;2.22;0.80;;;6.20;99.90;;;;;;5027051;28;20378;-65
2022/03/05 10:36:01;;;;;;;5.88;1.23;;;6.30;99.90;;;;;;5040319;28;20049;-65
2022/03/05 10:38:57;;;;;;;5.20;0.70;;;6.40;99.90;;;;;;5049422;28;20071;-64
2022/03/05 10:41:32;;;;;;;4.47;0.85;;;6.60;99.90;;;;;;5045268;28;20040;-66
2022/03/05 10:44:05;;;;;;;1.30;0.50;;;6.70;99.90;;;;;;5062435;28;20044;-65
2022/03/05 10:46:56;;;;;;;2.80;0.40;;;6.80;99.90;;;;;;5041333;28;20064;-66
2022/03/05 10:49:38;;;;;;;4.20;0.60;;;7.00;99.90;;;;;;5028839;28;20054;-66
2022/03/05 10:52:08;;;;;;;4.72;0.70;;;7.20;99.90;;;;;;5047133;28;20052;-65
2022/03/05 10:54:40;;;;;;;8.32;0.70;;;7.40;99.90;;;;;;5046493;28;20044;-62
2022/03/05 10:57:21;;;;;;;1.45;0.90;;;7.60;99.90;;;;;;5051067;28;20060;-61
2022/03/05 10:59:55;;;;;;;3.45;0.50;;;7.70;99.90;;;;;;5055112;28;20040;-62
2022/03/05 11:02:23;;;;;;;7.45;1.20;;;7.90;99.90;;;;;;5051074;28;20791;-61
2022/03/05 11:04:51;;;;;;;6.05;0.60;;;8.00;99.90;;;;;;5053434;28;20504;-61
2022/03/05 11:07:23;;;;;;;6.20;0.65;;;8.10;99.90;;;;;;5053935;28;20557;-63
2022/03/05 11:09:54;;;;;;;2.67;0.50;;;8.20;99.90;;;;;;5068773;28;20427;-62
2022/03/05 11:12:22;;;;;;;4.53;1.55;;;8.20;99.90;;;;;;5026625;28;20458;-62
2022/03/05 11:14:51;;;;;;;2.03;0.50;;;8.10;99.90;;;;;;5041493;28;20448;-63
2022/03/05 11:17:20;;;;;;;11.05;1.15;;;8.10;99.90;;;;;;5050964;28;20045;-65
2022/03/05 11:19:49;;;;;;;10.07;0.57;;;8.10;99.90;;;;;;5045983;28;20076;-61
2022/03/05 11:22:17;;;;;;;3.28;0.28;;;8.10;99.90;;;;;;5033107;28;20044;-63
2022/03/05 11:24:45;;;;;;;1.60;0.30;;;8.20;99.90;;;;;;5029366;28;20044;-64
2022/03/05 11:27:15;;;;;;;5.35;0.45;;;8.40;99.90;;;;;;5044710;28;20076;-65
2022/03/05 11:29:56;;;;;;;;;;;8.50;99.90;;;;;;5059975;28;20064;-64
2022/03/05 11:32:32;;;;;;;6.55;0.70;;;8.60;99.90;;;;;;5043179;28;19932;-62
2022/03/05 11:35:01;;;;;;;5.78;0.73;;;8.70;99.90;;;;;;5036284;28;20044;-63
2022/03/05 11:37:35;;;;;;;2.42;0.38;;;8.70;99.90;;;;;;5043550;28;20049;-64
2022/03/05 11:40:05;;;;;;;7.45;0.63;;;8.70;99.90;;;;;;5028917;28;20037;-64
2022/03/05 11:42:36;;;;;;;6.20;0.70;;;8.80;99.90;;;;;;5054216;28;20047;-64
2022/03/05 11:45:32;;;;;;;;;;;9.00;99.90;;;;;;5056850;28;20049;-64
2022/03/05 11:48:24;;;;;;;2.22;0.47;;;9.20;99.90;;;;;;5032578;28;19931;-63
2022/03/05 11:50:57;;;;;;;8.35;0.63;;;9.50;99.90;;;;;;5050800;28;20060;-63
2022/03/05 11:53:26;;;;;;;6.32;0.90;;;9.70;99.90;;;;;;5061647;28;20048;-63
2022/03/05 11:55:54;;;;;;;2.22;0.40;;;10.00;99.90;;;;;;5056503;28;20052;-63
2022/03/05 11:58:30;;;;;;;11.38;0.68;;;10.20;99.90;;;;;;5057111;28;20483;-62
2022/03/05 12:00:59;;;;;;;2.35;0.40;;;10.50;99.90;;;;;;5050601;28;20487;-63
2022/03/05 12:03:42;;;;;;;8.75;1.45;;;10.80;99.90;;;;;;5061487;28;20041;-64
2022/03/05 12:06:12;;;;;;;6.13;1.50;;;10.90;99.90;;;;;;5070479;28;20044;-64
2022/03/05 12:08:39;;;;;;;7.07;2.43;;;11.20;99.90;;;;;;5065939;28;20045;-64
2022/03/05 12:11:12;;;;;;;4.10;0.60;;;11.30;99.90;;;;;;5066634;28;20297;-64
2022/03/05 12:13:42;;;;;;;2.33;0.60;;;11.40;99.40;;;;;;5063267;28;20052;-63
2022/03/05 12:16:21;;;;;;;2.85;0.70;;;11.40;99.90;;;;;;5052393;28;20368;-63
2022/03/05 12:18:51;;;;;;;4.13;0.50;;;11.60;99.50;;;;;;5069932;28;20067;-64
2022/03/05 12:21:23;;;;;;;5.30;0.60;;;11.80;99.90;;;;;;5061231;28;20053;-65
2022/03/05 12:23:56;;;;;;;5.57;1.17;;;12.00;99.90;;;;;;5059927;28;20044;-64
2022/03/05 12:26:34;;;;;;;1.55;1.02;;;12.30;99.90;;;;;;5062989;28;20485;-64
2022/03/05 12:29:03;;;;;;;3.13;0.50;;;12.60;97.20;;;;;;5060623;28;20075;-64
2022/03/05 12:31:31;;;;;;;1.77;0.50;;;12.60;95.00;;;;;;5071581;28;20048;-64
2022/03/05 12:33:59;;;;;;;4.80;0.70;;;12.70;95.40;;;;;;5070114;28;20463;-63
2022/03/05 12:36:26;;;;;;;4.45;0.95;;;12.90;93.70;;;;;;5069832;28;20484;-64
2022/03/05 12:38:59;;;;;;;4.53;1.00;;;13.30;94.60;;;;;;5069612;28;20044;-63
2022/03/05 12:41:28;;;;;;;3.75;0.80;;;13.70;95.00;;;;;;5044472;28;20041;-65
2022/03/05 12:43:56;;;;;;;5.00;0.70;;;14.20;83.40;;;;;;5054540;28;20059;-64
2022/03/05 12:46:24;;;;;;;5.03;0.63;;;14.30;74.70;;;;;;5049817;28;20049;-64
2022/03/05 12:48:52;;;;;;;2.50;1.10;;;14.40;80.50;;;;;;5062942;28;20049;-64
2022/03/05 12:51:22;;;;;;;5.95;0.70;;;14.20;72.10;;;;;;5069464;28;20045;-64
2022/03/05 12:54:00;;;;;;;2.13;0.52;;;13.70;70.10;;;;;;5051391;28;20044;-63
2022/03/05 12:56:28;;;;;;;6.03;0.60;;;13.10;73.20;;;;;;5065515;28;20048;-63
2022/03/05 12:58:57;;;;;;;4.25;0.65;;;12.60;80.30;;;;;;5055786;28;20048;-64
2022/03/05 13:01:26;;;;;;;4.80;0.63;;;12.30;88.10;;;;;;5066243;28;20041;-64
2022/03/05 13:03:56;;;;;;;2.65;0.70;;;11.90;83.60;;;;;;5065436;28;20059;-64